sensor_id;sensor_type;location;lat;lon;timestamp;P1;durP1;ratioP1;P2;durP2;ratioP2
46447;SDS011;32145;50.390;30.778;2022-08-06T00:01:10;13.45;;;10.80;;
46447;SDS011;32145;50.390;30.778;2022-08-06T00:03:54;13.65;;;11.63;;
46447;SDS011;32145;50.390;30.778;2022-08-06T00:06:39;12.48;;;11.05;;
46447;SDS011;32145;50.390;30.778;2022-08-06T00:09:23;14.15;;;11.07;;
46447;SDS011;32145;50.390;30.778;2022-08-06T00:12:07;12.60;;;10.80;;
46447;SDS011;32145;50.390;30.778;2022-08-06T00:14:52;12.38;;;10.63;;
46447;SDS011;32145;50.390;30.778;2022-08-06T00:17:36;13.43;;;11.05;;
46447;SDS011;32145;50.390;30.778;2022-08-06T00:20:20;15.45;;;10.50;;
46447;SDS011;32145;50.390;30.778;2022-08-06T00:23:06;15.48;;;11.15;;
46447;SDS011;32145;50.390;30.778;2022-08-06T00:25:50;14.60;;;10.77;;
46447;SDS011;32145;50.390;30.778;2022-08-06T00:28:35;15.30;;;10.73;;
46447;SDS011;32145;50.390;30.778;2022-08-06T00:31:19;15.40;;;10.70;;
46447;SDS011;32145;50.390;30.778;2022-08-06T00:34:03;16.10;;;11.15;;
46447;SDS011;32145;50.390;30.778;2022-08-06T00:36:47;18.08;;;10.23;;
46447;SDS011;32145;50.390;30.778;2022-08-06T00:39:33;12.63;;;10.65;;
46447;SDS011;32145;50.390;30.778;2022-08-06T00:42:17;13.82;;;10.38;;
46447;SDS011;32145;50.390;30.778;2022-08-06T00:45:02;14.05;;;10.48;;
46447;SDS011;32145;50.390;30.778;2022-08-06T00:47:46;14.10;;;9.88;;
46447;SDS011;32145;50.390;30.778;2022-08-06T00:50:30;12.35;;;10.52;;
46447;SDS011;32145;50.390;30.778;2022-08-06T00:53:14;11.50;;;9.82;;
46447;SDS011;32145;50.390;30.778;2022-08-06T00:56:00;13.18;;;10.48;;
46447;SDS011;32145;50.390;30.778;2022-08-06T00:58:44;14.25;;;10.70;;
46447;SDS011;32145;50.390;30.778;2022-08-06T01:01:28;12.52;;;10.30;;
46447;SDS011;32145;50.390;30.778;2022-08-06T01:04:12;15.13;;;11.05;;
46447;SDS011;32145;50.390;30.778;2022-08-06T01:06:56;15.10;;;10.52;;
46447;SDS011;32145;50.390;30.778;2022-08-06T01:09:40;12.85;;;10.48;;
46447;SDS011;32145;50.390;30.778;2022-08-06T01:12:26;12.35;;;10.30;;
46447;SDS011;32145;50.390;30.778;2022-08-06T01:15:11;14.70;;;10.20;;
46447;SDS011;32145;50.390;30.778;2022-08-06T01:17:57;15.43;;;10.32;;
46447;SDS011;32145;50.390;30.778;2022-08-06T01:20:46;11.32;;;9.60;;
46447;SDS011;32145;50.390;30.778;2022-08-06T01:23:51;14.40;;;9.80;;
46447;SDS011;32145;50.390;30.778;2022-08-06T01:26:53;13.93;;;9.77;;
46447;SDS011;32145;50.390;30.778;2022-08-06T01:29:50;15.57;;;10.60;;
46447;SDS011;32145;50.390;30.778;2022-08-06T01:32:40;12.02;;;9.57;;
46447;SDS011;32145;50.390;30.778;2022-08-06T01:35:31;12.80;;;10.38;;
46447;SDS011;32145;50.390;30.778;2022-08-06T01:38:22;14.02;;;10.10;;
46447;SDS011;32145;50.390;30.778;2022-08-06T01:41:10;11.52;;;9.43;;
46447;SDS011;32145;50.390;30.778;2022-08-06T01:43:58;15.90;;;11.10;;
46447;SDS011;32145;50.390;30.778;2022-08-06T01:46:46;16.27;;;10.38;;
46447;SDS011;32145;50.390;30.778;2022-08-06T01:49:32;12.50;;;9.95;;
46447;SDS011;32145;50.390;30.778;2022-08-06T01:52:19;16.00;;;9.90;;
46447;SDS011;32145;50.390;30.778;2022-08-06T01:55:07;15.07;;;10.00;;
46447;SDS011;32145;50.390;30.778;2022-08-06T01:57:55;12.75;;;10.38;;
46447;SDS011;32145;50.390;30.778;2022-08-06T02:00:44;12.25;;;9.82;;
46447;SDS011;32145;50.390;30.778;2022-08-06T02:03:35;11.80;;;10.50;;
46447;SDS011;32145;50.390;30.778;2022-08-06T02:06:24;14.55;;;10.63;;
46447;SDS011;32145;50.390;30.778;2022-08-06T02:09:15;13.07;;;10.50;;
46447;SDS011;32145;50.390;30.778;2022-08-06T02:12:02;14.63;;;9.68;;
46447;SDS011;32145;50.390;30.778;2022-08-06T02:14:50;16.20;;;10.57;;
46447;SDS011;32145;50.390;30.778;2022-08-06T02:17:38;11.95;;;9.98;;
46447;SDS011;32145;50.390;30.778;2022-08-06T02:20:29;14.38;;;10.30;;
46447;SDS011;32145;50.390;30.778;2022-08-06T02:23:17;17.92;;;10.80;;
46447;SDS011;32145;50.390;30.778;2022-08-06T02:26:04;12.23;;;10.52;;
46447;SDS011;32145;50.390;30.778;2022-08-06T02:28:50;17.33;;;10.85;;
46447;SDS011;32145;50.390;30.778;2022-08-06T02:31:36;15.95;;;10.07;;
46447;SDS011;32145;50.390;30.778;2022-08-06T02:34:21;12.95;;;10.35;;
46447;SDS011;32145;50.390;30.778;2022-08-06T02:37:07;12.73;;;9.82;;
46447;SDS011;32145;50.390;30.778;2022-08-06T02:39:57;12.90;;;10.05;;
46447;SDS011;32145;50.390;30.778;2022-08-06T02:42:48;16.45;;;10.27;;
46447;SDS011;32145;50.390;30.778;2022-08-06T02:45:36;13.57;;;10.45;;
46447;SDS011;32145;50.390;30.778;2022-08-06T02:48:26;12.73;;;10.20;;
46447;SDS011;32145;50.390;30.778;2022-08-06T02:51:15;13.00;;;10.70;;
46447;SDS011;32145;50.390;30.778;2022-08-06T02:54:05;13.23;;;10.63;;
46447;SDS011;32145;50.390;30.778;2022-08-06T02:56:51;17.92;;;10.82;;
46447;SDS011;32145;50.390;30.778;2022-08-06T02:59:42;16.95;;;10.25;;
46447;SDS011;32145;50.390;30.778;2022-08-06T03:02:30;13.47;;;9.87;;
46447;SDS011;32145;50.390;30.778;2022-08-06T03:05:17;12.38;;;10.38;;
46447;SDS011;32145;50.390;30.778;2022-08-06T03:08:04;14.95;;;10.20;;
46447;SDS011;32145;50.390;30.778;2022-08-06T03:10:54;11.90;;;9.73;;
46447;SDS011;32145;50.390;30.778;2022-08-06T03:13:40;13.20;;;10.20;;
46447;SDS011;32145;50.390;30.778;2022-08-06T03:16:27;11.50;;;10.30;;
46447;SDS011;32145;50.390;30.778;2022-08-06T03:19:14;15.27;;;11.05;;
46447;SDS011;32145;50.390;30.778;2022-08-06T03:22:01;14.60;;;10.50;;
46447;SDS011;32145;50.390;30.778;2022-08-06T03:24:46;12.20;;;10.45;;
46447;SDS011;32145;50.390;30.778;2022-08-06T03:27:34;13.00;;;10.93;;
46447;SDS011;32145;50.390;30.778;2022-08-06T03:30:20;12.45;;;10.82;;
46447;SDS011;32145;50.390;30.778;2022-08-06T03:33:05;14.85;;;11.05;;
46447;SDS011;32145;50.390;30.778;2022-08-06T03:35:53;14.45;;;11.00;;
46447;SDS011;32145;50.390;30.778;2022-08-06T03:38:40;15.20;;;11.75;;
46447;SDS011;32145;50.390;30.778;2022-08-06T03:41:27;18.63;;;10.85;;
46447;SDS011;32145;50.390;30.778;2022-08-06T03:44:14;10.85;;;9.40;;
46447;SDS011;32145;50.390;30.778;2022-08-06T03:47:00;11.50;;;9.32;;
46447;SDS011;32145;50.390;30.778;2022-08-06T03:49:50;11.27;;;9.48;;
46447;SDS011;32145;50.390;30.778;2022-08-06T03:52:40;12.30;;;9.48;;
46447;SDS011;32145;50.390;30.778;2022-08-06T03:55:26;11.52;;;9.55;;
46447;SDS011;32145;50.390;30.778;2022-08-06T03:58:13;13.57;;;9.52;;
46447;SDS011;32145;50.390;30.778;2022-08-06T04:01:01;13.02;;;9.30;;
46447;SDS011;32145;50.390;30.778;2022-08-06T04:03:47;13.02;;;8.82;;
46447;SDS011;32145;50.390;30.778;2022-08-06T04:06:32;13.50;;;9.10;;
46447;SDS011;32145;50.390;30.778;2022-08-06T04:09:17;11.95;;;9.30;;
46447;SDS011;32145;50.390;30.778;2022-08-06T04:12:03;14.38;;;9.73;;
46447;SDS011;32145;50.390;30.778;2022-08-06T04:14:49;11.82;;;9.60;;
46447;SDS011;32145;50.390;30.778;2022-08-06T04:17:36;14.45;;;10.13;;
46447;SDS011;32145;50.390;30.778;2022-08-06T04:20:22;11.93;;;9.50;;
46447;SDS011;32145;50.390;30.778;2022-08-06T04:23:07;11.70;;;9.15;;
46447;SDS011;32145;50.390;30.778;2022-08-06T04:25:53;12.23;;;10.20;;
46447;SDS011;32145;50.390;30.778;2022-08-06T04:28:39;12.10;;;9.40;;
46447;SDS011;32145;50.390;30.778;2022-08-06T04:31:26;15.70;;;10.07;;
46447;SDS011;32145;50.390;30.778;2022-08-06T04:34:18;12.02;;;9.70;;
46447;SDS011;32145;50.390;30.778;2022-08-06T04:37:04;11.40;;;9.98;;
46447;SDS011;32145;50.390;30.778;2022-08-06T04:39:49;11.25;;;9.85;;
46447;SDS011;32145;50.390;30.778;2022-08-06T04:42:33;12.98;;;9.68;;
46447;SDS011;32145;50.390;30.778;2022-08-06T04:45:18;16.40;;;10.05;;
46447;SDS011;32145;50.390;30.778;2022-08-06T04:48:03;12.73;;;10.05;;
46447;SDS011;32145;50.390;30.778;2022-08-06T04:50:50;15.18;;;9.65;;
46447;SDS011;32145;50.390;30.778;2022-08-06T04:53:35;14.45;;;10.32;;
46447;SDS011;32145;50.390;30.778;2022-08-06T04:56:20;11.93;;;9.80;;
46447;SDS011;32145;50.390;30.778;2022-08-06T04:59:04;14.02;;;9.60;;
46447;SDS011;32145;50.390;30.778;2022-08-06T05:01:49;14.95;;;10.13;;
46447;SDS011;32145;50.390;30.778;2022-08-06T05:04:32;14.77;;;10.50;;
46447;SDS011;32145;50.390;30.778;2022-08-06T05:07:20;15.95;;;9.57;;
46447;SDS011;32145;50.390;30.778;2022-08-06T05:10:07;13.05;;;10.15;;
46447;SDS011;32145;50.390;30.778;2022-08-06T05:12:53;13.52;;;10.48;;
46447;SDS011;32145;50.390;30.778;2022-08-06T05:15:40;12.73;;;10.05;;
46447;SDS011;32145;50.390;30.778;2022-08-06T05:18:28;15.50;;;10.50;;
46447;SDS011;32145;50.390;30.778;2022-08-06T05:21:17;13.27;;;10.35;;
46447;SDS011;32145;50.390;30.778;2022-08-06T05:24:06;13.73;;;10.30;;
46447;SDS011;32145;50.390;30.778;2022-08-06T05:26:51;14.35;;;10.57;;
46447;SDS011;32145;50.390;30.778;2022-08-06T05:29:38;17.85;;;10.52;;
46447;SDS011;32145;50.390;30.778;2022-08-06T05:32:23;13.57;;;10.48;;
46447;SDS011;32145;50.390;30.778;2022-08-06T05:35:07;12.70;;;9.85;;
46447;SDS011;32145;50.390;30.778;2022-08-06T05:37:51;14.27;;;11.43;;
46447;SDS011;32145;50.390;30.778;2022-08-06T05:40:36;12.60;;;9.57;;
46447;SDS011;32145;50.390;30.778;2022-08-06T05:43:21;12.65;;;10.10;;
46447;SDS011;32145;50.390;30.778;2022-08-06T05:46:07;11.82;;;10.50;;
46447;SDS011;32145;50.390;30.778;2022-08-06T05:48:55;14.03;;;9.97;;
46447;SDS011;32145;50.390;30.778;2022-08-06T05:51:46;17.27;;;10.32;;
46447;SDS011;32145;50.390;30.778;2022-08-06T05:54:37;13.05;;;10.30;;
46447;SDS011;32145;50.390;30.778;2022-08-06T05:57:26;14.30;;;9.95;;
46447;SDS011;32145;50.390;30.778;2022-08-06T06:00:16;14.38;;;9.70;;
46447;SDS011;32145;50.390;30.778;2022-08-06T06:03:04;12.50;;;9.98;;
46447;SDS011;32145;50.390;30.778;2022-08-06T06:05:50;11.20;;;10.00;;
46447;SDS011;32145;50.390;30.778;2022-08-06T06:08:35;12.93;;;9.77;;
46447;SDS011;32145;50.390;30.778;2022-08-06T06:11:20;11.13;;;9.40;;
46447;SDS011;32145;50.390;30.778;2022-08-06T06:14:06;12.32;;;10.43;;
46447;SDS011;32145;50.390;30.778;2022-08-06T06:17:02;13.32;;;10.20;;
46447;SDS011;32145;50.390;30.778;2022-08-06T06:20:01;12.85;;;9.80;;
46447;SDS011;32145;50.390;30.778;2022-08-06T06:22:54;11.10;;;9.73;;
46447;SDS011;32145;50.390;30.778;2022-08-06T06:25:45;13.40;;;9.93;;
46447;SDS011;32145;50.390;30.778;2022-08-06T06:28:37;16.10;;;9.85;;
46447;SDS011;32145;50.390;30.778;2022-08-06T06:31:33;11.50;;;9.35;;
46447;SDS011;32145;50.390;30.778;2022-08-06T06:34:25;10.63;;;9.50;;
46447;SDS011;32145;50.390;30.778;2022-08-06T06:37:19;11.30;;;9.75;;
46447;SDS011;32145;50.390;30.778;2022-08-06T06:40:12;13.07;;;9.85;;
46447;SDS011;32145;50.390;30.778;2022-08-06T06:43:07;14.07;;;10.18;;
46447;SDS011;32145;50.390;30.778;2022-08-06T06:45:55;11.50;;;10.30;;
46447;SDS011;32145;50.390;30.778;2022-08-06T06:51:32;11.77;;;10.57;;
46447;SDS011;32145;50.390;30.778;2022-08-06T06:54:20;11.43;;;9.90;;
46447;SDS011;32145;50.390;30.778;2022-08-06T06:57:10;14.30;;;10.80;;
46447;SDS011;32145;50.390;30.778;2022-08-06T06:59:59;15.18;;;10.40;;
46447;SDS011;32145;50.390;30.778;2022-08-06T07:15:45;12.95;;;10.38;;
46447;SDS011;32145;50.390;30.778;2022-08-06T07:18:33;11.40;;;9.93;;
46447;SDS011;32145;50.390;30.778;2022-08-06T07:21:18;12.50;;;10.48;;
46447;SDS011;32145;50.390;30.778;2022-08-06T07:24:03;10.73;;;9.63;;
46447;SDS011;32145;50.390;30.778;2022-08-06T07:26:49;11.90;;;9.43;;
46447;SDS011;32145;50.390;30.778;2022-08-06T07:29:35;13.13;;;9.80;;
46447;SDS011;32145;50.390;30.778;2022-08-06T07:32:22;10.90;;;9.55;;
46447;SDS011;32145;50.390;30.778;2022-08-06T07:35:08;13.15;;;10.07;;
46447;SDS011;32145;50.390;30.778;2022-08-06T07:37:53;15.48;;;10.50;;
46447;SDS011;32145;50.390;30.778;2022-08-06T07:40:40;15.07;;;9.75;;
46447;SDS011;32145;50.390;30.778;2022-08-06T07:43:29;13.65;;;9.70;;
46447;SDS011;32145;50.390;30.778;2022-08-06T07:46:20;16.58;;;9.77;;
46447;SDS011;32145;50.390;30.778;2022-08-06T07:49:08;14.13;;;9.32;;
46447;SDS011;32145;50.390;30.778;2022-08-06T07:51:53;11.25;;;9.48;;
46447;SDS011;32145;50.390;30.778;2022-08-06T07:54:40;9.77;;;8.77;;
46447;SDS011;32145;50.390;30.778;2022-08-06T07:57:26;10.77;;;9.20;;
46447;SDS011;32145;50.390;30.778;2022-08-06T08:00:11;11.90;;;9.27;;
46447;SDS011;32145;50.390;30.778;2022-08-06T08:02:55;11.68;;;9.02;;
46447;SDS011;32145;50.390;30.778;2022-08-06T08:05:40;9.60;;;8.48;;
46447;SDS011;32145;50.390;30.778;2022-08-06T08:08:27;11.23;;;8.38;;
46447;SDS011;32145;50.390;30.778;2022-08-06T08:11:13;13.88;;;9.73;;
46447;SDS011;32145;50.390;30.778;2022-08-06T08:13:59;12.05;;;9.73;;
46447;SDS011;32145;50.390;30.778;2022-08-06T08:16:45;13.55;;;10.43;;
46447;SDS011;32145;50.390;30.778;2022-08-06T08:19:30;10.85;;;9.60;;
46447;SDS011;32145;50.390;30.778;2022-08-06T08:22:17;12.93;;;9.02;;
46447;SDS011;32145;50.390;30.778;2022-08-06T08:25:03;10.07;;;8.82;;
46447;SDS011;32145;50.390;30.778;2022-08-06T08:27:48;10.98;;;8.98;;
46447;SDS011;32145;50.390;30.778;2022-08-06T08:30:32;11.45;;;9.05;;
46447;SDS011;32145;50.390;30.778;2022-08-06T08:33:17;10.30;;;8.70;;
46447;SDS011;32145;50.390;30.778;2022-08-06T08:36:01;10.07;;;8.82;;
46447;SDS011;32145;50.390;30.778;2022-08-06T08:38:47;11.48;;;8.93;;
46447;SDS011;32145;50.390;30.778;2022-08-06T08:41:32;12.77;;;9.32;;
46447;SDS011;32145;50.390;30.778;2022-08-06T08:44:21;10.77;;;9.23;;
46447;SDS011;32145;50.390;30.778;2022-08-06T08:47:07;12.13;;;9.77;;
46447;SDS011;32145;50.390;30.778;2022-08-06T08:49:54;11.38;;;9.25;;
46447;SDS011;32145;50.390;30.778;2022-08-06T08:52:42;10.20;;;8.07;;
46447;SDS011;32145;50.390;30.778;2022-08-06T08:55:29;9.48;;;7.95;;
46447;SDS011;32145;50.390;30.778;2022-08-06T08:58:13;9.82;;;8.20;;
46447;SDS011;32145;50.390;30.778;2022-08-06T09:00:58;11.43;;;7.70;;
46447;SDS011;32145;50.390;30.778;2022-08-06T09:03:43;10.75;;;8.45;;
46447;SDS011;32145;50.390;30.778;2022-08-06T09:06:28;8.52;;;7.63;;
46447;SDS011;32145;50.390;30.778;2022-08-06T09:09:12;12.18;;;7.70;;
46447;SDS011;32145;50.390;30.778;2022-08-06T09:11:58;14.85;;;8.07;;
46447;SDS011;32145;50.390;30.778;2022-08-06T09:14:42;8.57;;;7.60;;
46447;SDS011;32145;50.390;30.778;2022-08-06T09:17:27;8.60;;;7.70;;
46447;SDS011;32145;50.390;30.778;2022-08-06T09:20:13;7.45;;;6.55;;
46447;SDS011;32145;50.390;30.778;2022-08-06T09:22:57;7.45;;;6.53;;
46447;SDS011;32145;50.390;30.778;2022-08-06T09:25:42;9.10;;;6.70;;
46447;SDS011;32145;50.390;30.778;2022-08-06T09:28:34;7.97;;;7.13;;
46447;SDS011;32145;50.390;30.778;2022-08-06T09:31:19;9.23;;;7.72;;
46447;SDS011;32145;50.390;30.778;2022-08-06T09:34:05;8.70;;;7.40;;
46447;SDS011;32145;50.390;30.778;2022-08-06T09:36:50;7.80;;;6.50;;
46447;SDS011;32145;50.390;30.778;2022-08-06T09:39:35;10.13;;;7.05;;
46447;SDS011;32145;50.390;30.778;2022-08-06T09:42:35;8.35;;;7.32;;
46447;SDS011;32145;50.390;30.778;2022-08-06T09:48:07;8.35;;;6.90;;
46447;SDS011;32145;50.390;30.778;2022-08-06T09:50:51;7.43;;;5.75;;
46447;SDS011;32145;50.390;30.778;2022-08-06T09:53:35;6.53;;;5.72;;
46447;SDS011;32145;50.390;30.778;2022-08-06T09:59:18;7.60;;;6.50;;
46447;SDS011;32145;50.390;30.778;2022-08-06T10:02:10;6.85;;;6.07;;
46447;SDS011;32145;50.390;30.778;2022-08-06T10:05:05;10.00;;;6.25;;
46447;SDS011;32145;50.390;30.778;2022-08-06T10:08:01;10.13;;;6.65;;
46447;SDS011;32145;50.390;30.778;2022-08-06T10:10:48;7.47;;;6.07;;
46447;SDS011;32145;50.390;30.778;2022-08-06T10:13:34;8.80;;;6.43;;
46447;SDS011;32145;50.390;30.778;2022-08-06T10:16:20;7.03;;;6.32;;
46447;SDS011;32145;50.390;30.778;2022-08-06T10:19:06;8.02;;;6.30;;
46447;SDS011;32145;50.390;30.778;2022-08-06T10:22:02;8.77;;;6.13;;
46447;SDS011;32145;50.390;30.778;2022-08-06T10:24:48;7.22;;;6.18;;
46447;SDS011;32145;50.390;30.778;2022-08-06T10:27:34;7.70;;;6.15;;
46447;SDS011;32145;50.390;30.778;2022-08-06T10:30:18;6.45;;;5.70;;
46447;SDS011;32145;50.390;30.778;2022-08-06T10:33:05;7.45;;;5.00;;
46447;SDS011;32145;50.390;30.778;2022-08-06T10:36:04;6.82;;;5.70;;
46447;SDS011;32145;50.390;30.778;2022-08-06T10:38:52;8.35;;;5.90;;
46447;SDS011;32145;50.390;30.778;2022-08-06T10:41:39;6.63;;;5.50;;
46447;SDS011;32145;50.390;30.778;2022-08-06T10:44:24;9.23;;;6.07;;
46447;SDS011;32145;50.390;30.778;2022-08-06T10:47:11;8.40;;;6.03;;
46447;SDS011;32145;50.390;30.778;2022-08-06T10:49:55;9.73;;;6.55;;
46447;SDS011;32145;50.390;30.778;2022-08-06T10:52:42;11.45;;;6.30;;
46447;SDS011;32145;50.390;30.778;2022-08-06T10:55:28;6.55;;;5.85;;
46447;SDS011;32145;50.390;30.778;2022-08-06T10:58:12;12.95;;;6.47;;
46447;SDS011;32145;50.390;30.778;2022-08-06T11:00:57;6.82;;;6.05;;
46447;SDS011;32145;50.390;30.778;2022-08-06T11:03:57;7.03;;;6.32;;
46447;SDS011;32145;50.390;30.778;2022-08-06T11:07:00;6.00;;;5.20;;
46447;SDS011;32145;50.390;30.778;2022-08-06T11:10:02;8.40;;;6.00;;
46447;SDS011;32145;50.390;30.778;2022-08-06T11:13:07;6.88;;;5.55;;
46447;SDS011;32145;50.390;30.778;2022-08-06T11:15:57;8.48;;;6.20;;
46447;SDS011;32145;50.390;30.778;2022-08-06T11:18:56;6.35;;;5.43;;
46447;SDS011;32145;50.390;30.778;2022-08-06T11:21:42;9.18;;;5.65;;
46447;SDS011;32145;50.390;30.778;2022-08-06T11:24:27;7.30;;;5.53;;
46447;SDS011;32145;50.390;30.778;2022-08-06T11:30:37;7.97;;;5.88;;
46447;SDS011;32145;50.390;30.778;2022-08-06T11:33:57;10.38;;;5.35;;
46447;SDS011;32145;50.390;30.778;2022-08-06T11:36:48;5.93;;;5.13;;
46447;SDS011;32145;50.390;30.778;2022-08-06T11:39:34;6.50;;;5.63;;
46447;SDS011;32145;50.390;30.778;2022-08-06T11:42:48;6.68;;;5.57;;
46447;SDS011;32145;50.390;30.778;2022-08-06T11:45:32;9.38;;;5.28;;
46447;SDS011;32145;50.390;30.778;2022-08-06T11:48:17;8.98;;;5.55;;
46447;SDS011;32145;50.390;30.778;2022-08-06T11:54:19;7.30;;;5.18;;
46447;SDS011;32145;50.390;30.778;2022-08-06T11:57:26;6.43;;;4.75;;
46447;SDS011;32145;50.390;30.778;2022-08-06T12:00:11;6.68;;;4.70;;
46447;SDS011;32145;50.390;30.778;2022-08-06T12:03:00;7.25;;;4.82;;
46447;SDS011;32145;50.390;30.778;2022-08-06T12:05:46;6.20;;;4.80;;
46447;SDS011;32145;50.390;30.778;2022-08-06T12:08:30;8.43;;;5.00;;
46447;SDS011;32145;50.390;30.778;2022-08-06T12:11:20;5.88;;;4.65;;
46447;SDS011;32145;50.390;30.778;2022-08-06T12:17:23;6.63;;;5.00;;
46447;SDS011;32145;50.390;30.778;2022-08-06T12:20:08;6.60;;;4.80;;
46447;SDS011;32145;50.390;30.778;2022-08-06T12:22:54;7.32;;;4.35;;
46447;SDS011;32145;50.390;30.778;2022-08-06T12:25:38;6.15;;;4.82;;
46447;SDS011;32145;50.390;30.778;2022-08-06T12:28:23;5.63;;;4.95;;
46447;SDS011;32145;50.390;30.778;2022-08-06T12:31:08;7.18;;;4.68;;
46447;SDS011;32145;50.390;30.778;2022-08-06T12:33:52;6.78;;;4.72;;
46447;SDS011;32145;50.390;30.778;2022-08-06T12:36:36;6.93;;;4.63;;
46447;SDS011;32145;50.390;30.778;2022-08-06T12:39:21;5.38;;;4.72;;
46447;SDS011;32145;50.390;30.778;2022-08-06T12:42:06;5.18;;;4.28;;
46447;SDS011;32145;50.390;30.778;2022-08-06T12:45:08;10.30;;;4.68;;
46447;SDS011;32145;50.390;30.778;2022-08-06T12:47:56;10.13;;;4.45;;
46447;SDS011;32145;50.390;30.778;2022-08-06T12:50:42;8.50;;;4.50;;
46447;SDS011;32145;50.390;30.778;2022-08-06T12:53:27;7.32;;;4.10;;
46447;SDS011;32145;50.390;30.778;2022-08-06T12:56:13;6.53;;;5.25;;
46447;SDS011;32145;50.390;30.778;2022-08-06T12:58:58;6.65;;;4.80;;
46447;SDS011;32145;50.390;30.778;2022-08-06T13:01:44;6.70;;;4.88;;
46447;SDS011;32145;50.390;30.778;2022-08-06T13:04:28;9.05;;;4.43;;
46447;SDS011;32145;50.390;30.778;2022-08-06T13:07:13;7.28;;;4.85;;
46447;SDS011;32145;50.390;30.778;2022-08-06T13:09:58;6.63;;;4.70;;
46447;SDS011;32145;50.390;30.778;2022-08-06T13:12:43;8.48;;;4.47;;
46447;SDS011;32145;50.390;30.778;2022-08-06T13:15:35;6.68;;;4.28;;
46447;SDS011;32145;50.390;30.778;2022-08-06T13:18:19;5.05;;;4.13;;
46447;SDS011;32145;50.390;30.778;2022-08-06T13:21:04;6.05;;;4.47;;
46447;SDS011;32145;50.390;30.778;2022-08-06T13:24:00;4.78;;;4.05;;
46447;SDS011;32145;50.390;30.778;2022-08-06T13:26:48;7.72;;;4.45;;
46447;SDS011;32145;50.390;30.778;2022-08-06T13:29:35;5.55;;;4.53;;
46447;SDS011;32145;50.390;30.778;2022-08-06T13:32:23;7.78;;;4.55;;
46447;SDS011;32145;50.390;30.778;2022-08-06T13:35:08;4.88;;;4.10;;
46447;SDS011;32145;50.390;30.778;2022-08-06T13:37:52;5.25;;;4.20;;
46447;SDS011;32145;50.390;30.778;2022-08-06T13:40:40;5.90;;;4.50;;
46447;SDS011;32145;50.390;30.778;2022-08-06T13:43:33;7.60;;;4.43;;
46447;SDS011;32145;50.390;30.778;2022-08-06T13:46:21;5.25;;;4.45;;
46447;SDS011;32145;50.390;30.778;2022-08-06T13:49:06;6.70;;;4.35;;
46447;SDS011;32145;50.390;30.778;2022-08-06T13:51:51;6.75;;;4.60;;
46447;SDS011;32145;50.390;30.778;2022-08-06T13:54:35;5.47;;;4.35;;
46447;SDS011;32145;50.390;30.778;2022-08-06T13:57:19;9.55;;;4.38;;
46447;SDS011;32145;50.390;30.778;2022-08-06T14:00:04;5.18;;;4.45;;
46447;SDS011;32145;50.390;30.778;2022-08-06T14:02:51;8.18;;;4.30;;
46447;SDS011;32145;50.390;30.778;2022-08-06T14:05:35;7.38;;;4.30;;
46447;SDS011;32145;50.390;30.778;2022-08-06T14:08:19;7.20;;;4.57;;
46447;SDS011;32145;50.390;30.778;2022-08-06T14:11:03;8.38;;;4.60;;
46447;SDS011;32145;50.390;30.778;2022-08-06T14:13:48;5.30;;;4.13;;
46447;SDS011;32145;50.390;30.778;2022-08-06T14:16:32;5.40;;;4.35;;
46447;SDS011;32145;50.390;30.778;2022-08-06T14:19:17;5.28;;;4.00;;
46447;SDS011;32145;50.390;30.778;2022-08-06T14:22:02;5.30;;;4.00;;
46447;SDS011;32145;50.390;30.778;2022-08-06T14:24:46;5.10;;;4.30;;
46447;SDS011;32145;50.390;30.778;2022-08-06T14:27:30;5.63;;;4.45;;
46447;SDS011;32145;50.390;30.778;2022-08-06T14:30:14;5.32;;;4.70;;
46447;SDS011;32145;50.390;30.778;2022-08-06T14:33:00;5.13;;;4.15;;
46447;SDS011;32145;50.390;30.778;2022-08-06T14:35:47;7.25;;;4.30;;
46447;SDS011;32145;50.390;30.778;2022-08-06T14:38:30;8.85;;;4.68;;
46447;SDS011;32145;50.390;30.778;2022-08-06T14:41:14;5.47;;;4.30;;
46447;SDS011;32145;50.390;30.778;2022-08-06T14:43:58;6.13;;;4.30;;
46447;SDS011;32145;50.390;30.778;2022-08-06T14:46:42;6.45;;;4.00;;
46447;SDS011;32145;50.390;30.778;2022-08-06T14:49:27;5.07;;;4.13;;
46447;SDS011;32145;50.390;30.778;2022-08-06T14:52:12;7.55;;;4.18;;
46447;SDS011;32145;50.390;30.778;2022-08-06T14:54:56;5.32;;;4.25;;
46447;SDS011;32145;50.390;30.778;2022-08-06T14:57:40;4.90;;;3.97;;
46447;SDS011;32145;50.390;30.778;2022-08-06T15:00:24;7.53;;;4.70;;
46447;SDS011;32145;50.390;30.778;2022-08-06T15:03:08;7.35;;;4.63;;
46447;SDS011;32145;50.390;30.778;2022-08-06T15:05:52;8.05;;;4.90;;
46447;SDS011;32145;50.390;30.778;2022-08-06T15:08:38;6.22;;;4.40;;
46447;SDS011;32145;50.390;30.778;2022-08-06T15:11:22;5.57;;;4.35;;
46447;SDS011;32145;50.390;30.778;2022-08-06T15:14:06;5.43;;;4.57;;
46447;SDS011;32145;50.390;30.778;2022-08-06T15:16:50;6.20;;;4.15;;
46447;SDS011;32145;50.390;30.778;2022-08-06T15:19:34;5.43;;;4.32;;
46447;SDS011;32145;50.390;30.778;2022-08-06T15:22:19;5.93;;;4.20;;
46447;SDS011;32145;50.390;30.778;2022-08-06T15:25:04;6.43;;;4.38;;
46447;SDS011;32145;50.390;30.778;2022-08-06T15:27:49;5.85;;;4.45;;
46447;SDS011;32145;50.390;30.778;2022-08-06T15:30:33;7.28;;;4.28;;
46447;SDS011;32145;50.390;30.778;2022-08-06T15:33:17;6.57;;;4.38;;
46447;SDS011;32145;50.390;30.778;2022-08-06T15:36:02;6.75;;;4.35;;
46447;SDS011;32145;50.390;30.778;2022-08-06T15:38:46;5.68;;;3.70;;
46447;SDS011;32145;50.390;30.778;2022-08-06T15:41:31;6.35;;;4.10;;
46447;SDS011;32145;50.390;30.778;2022-08-06T15:44:16;4.65;;;4.05;;
46447;SDS011;32145;50.390;30.778;2022-08-06T15:47:00;9.70;;;3.95;;
46447;SDS011;32145;50.390;30.778;2022-08-06T15:49:47;5.07;;;3.90;;
46447;SDS011;32145;50.390;30.778;2022-08-06T15:52:31;4.82;;;3.58;;
46447;SDS011;32145;50.390;30.778;2022-08-06T15:55:16;7.80;;;3.72;;
46447;SDS011;32145;50.390;30.778;2022-08-06T15:58:01;4.93;;;3.83;;
46447;SDS011;32145;50.390;30.778;2022-08-06T16:00:46;6.43;;;3.95;;
46447;SDS011;32145;50.390;30.778;2022-08-06T16:03:29;5.18;;;4.00;;
46447;SDS011;32145;50.390;30.778;2022-08-06T16:06:13;5.18;;;3.78;;
46447;SDS011;32145;50.390;30.778;2022-08-06T16:08:57;6.22;;;4.05;;
46447;SDS011;32145;50.390;30.778;2022-08-06T16:11:41;10.82;;;4.07;;
46447;SDS011;32145;50.390;30.778;2022-08-06T16:14:27;8.63;;;4.18;;
46447;SDS011;32145;50.390;30.778;2022-08-06T16:17:11;6.80;;;4.25;;
46447;SDS011;32145;50.390;30.778;2022-08-06T16:19:56;5.82;;;4.20;;
46447;SDS011;32145;50.390;30.778;2022-08-06T16:22:40;7.93;;;4.00;;
46447;SDS011;32145;50.390;30.778;2022-08-06T16:25:24;5.93;;;4.35;;
46447;SDS011;32145;50.390;30.778;2022-08-06T16:28:08;7.63;;;4.05;;
46447;SDS011;32145;50.390;30.778;2022-08-06T16:30:55;6.72;;;4.68;;
46447;SDS011;32145;50.390;30.778;2022-08-06T16:33:38;5.35;;;4.60;;
46447;SDS011;32145;50.390;30.778;2022-08-06T16:36:23;7.15;;;4.57;;
46447;SDS011;32145;50.390;30.778;2022-08-06T16:39:07;13.75;;;5.38;;
46447;SDS011;32145;50.390;30.778;2022-08-06T16:41:51;6.47;;;5.20;;
46447;SDS011;32145;50.390;30.778;2022-08-06T16:44:35;6.32;;;4.93;;
46447;SDS011;32145;50.390;30.778;2022-08-06T16:47:21;6.70;;;4.85;;
46447;SDS011;32145;50.390;30.778;2022-08-06T16:50:05;7.22;;;5.18;;